createdAt,value
2018-12-24T09:20:16.364Z,176.00
2018-12-24T09:21:16.326Z,180.00
2018-12-24T09:22:16.316Z,220.00
2018-12-24T09:23:16.307Z,268.00
2018-12-24T09:24:16.322Z,228.00
2018-12-24T09:25:16.284Z,276.00
2018-12-24T09:26:16.277Z,320.00
2018-12-24T09:27:16.269Z,344.00
2018-12-24T09:28:16.271Z,340.00
2018-12-24T09:29:16.278Z,292.00
2018-12-24T09:30:16.239Z,272.00
2018-12-24T09:31:16.305Z,228.00
2018-12-24T09:32:16.212Z,212.00
2018-12-24T09:33:16.203Z,228.00
2018-12-24T09:34:16.191Z,204.00
2018-12-24T09:35:16.199Z,292.00
2018-12-24T09:36:16.181Z,420.00
2018-12-24T09:37:16.159Z,508.00
2018-12-24T09:38:16.150Z,596.00
2018-12-24T09:39:16.139Z,520.00
2018-12-24T09:40:16.149Z,652.00
2018-12-24T09:41:16.121Z,632.00
2018-12-24T09:42:16.116Z,528.00
2018-12-24T09:43:16.112Z,396.00
2018-12-24T09:46:11.807Z,252.00
2018-12-24T09:47:11.782Z,192.00
2018-12-24T09:48:11.766Z,180.00
2018-12-24T09:49:11.756Z,176.00
2018-12-24T09:50:12.275Z,164.00
2018-12-24T09:51:11.736Z,228.00
2018-12-24T09:52:11.723Z,308.00
2018-12-24T09:53:11.732Z,368.00
2018-12-24T09:54:11.702Z,304.00
2018-12-24T09:55:11.709Z,280.00
2018-12-24T09:56:12.558Z,400.00
2018-12-24T09:57:11.671Z,464.00
2018-12-24T09:58:11.663Z,540.00
2018-12-24T09:59:11.762Z,624.00
2018-12-24T10:00:11.656Z,672.00
2018-12-24T10:01:11.640Z,704.00
2018-12-24T10:02:11.618Z,604.00
2018-12-24T10:03:11.607Z,628.00
2018-12-24T10:04:11.601Z,752.00
2018-12-24T10:05:11.619Z,708.00
2018-12-24T10:06:11.614Z,704.00
2018-12-24T10:07:11.572Z,840.00
2018-12-24T10:08:11.555Z,856.00
2018-12-24T10:09:11.546Z,984.00
2018-12-24T10:10:11.538Z,1248.00
2018-12-24T10:11:11.546Z,1608.00
2018-12-24T10:12:11.510Z,1676.00
2018-12-24T10:13:11.517Z,1668.00
2018-12-24T10:14:11.490Z,1376.00
2018-12-24T10:15:11.477Z,1360.00
2018-12-24T10:16:11.488Z,1996.00
2018-12-24T10:17:11.461Z,1808.00
2018-12-24T10:18:11.445Z,1592.00
2018-12-24T10:19:11.453Z,1512.00
2018-12-24T10:20:11.429Z,1548.00
2018-12-24T10:21:11.440Z,1796.00
2018-12-24T10:22:11.411Z,1476.00
2018-12-24T10:23:11.393Z,1260.00
2018-12-24T10:24:11.502Z,1376.00
2018-12-24T10:25:11.374Z,1640.00
2018-12-24T10:26:11.377Z,1424.00
2018-12-24T10:27:11.350Z,1592.00
2018-12-24T10:28:11.344Z,1536.00
2018-12-24T10:29:11.327Z,1204.00
2018-12-24T10:30:11.317Z,1160.00
2018-12-24T10:31:11.330Z,1444.00
2018-12-24T10:32:11.295Z,1384.00
2018-12-24T10:33:11.290Z,1252.00
2018-12-24T10:34:11.279Z,1028.00
2018-12-24T10:35:11.264Z,1020.00
2018-12-24T10:36:11.281Z,960.00
2018-12-24T10:37:11.248Z,1020.00
2018-12-24T10:38:11.234Z,1024.00
2018-12-24T10:39:11.220Z,1024.00
2018-12-24T10:40:11.216Z,1380.00
2018-12-24T10:41:11.235Z,1680.00
2018-12-24T10:42:11.195Z,1652.00
2018-12-24T10:43:11.182Z,1492.00
2018-12-24T10:44:11.170Z,1600.00
2018-12-24T10:45:16.424Z,1724.00
2018-12-24T10:46:12.172Z,2080.00
2018-12-24T10:47:11.137Z,2072.00
2018-12-24T10:48:11.128Z,2096.00
2018-12-24T10:49:11.114Z,2284.00
2018-12-24T10:50:11.109Z,2044.00
2018-12-24T10:51:11.093Z,2196.00
2018-12-24T10:52:11.112Z,1792.00
2018-12-24T10:53:11.070Z,1812.00
2018-12-24T10:54:11.061Z,3640.00
2018-12-24T10:55:11.165Z,1776.00
2018-12-24T10:56:11.053Z,1892.00
2018-12-24T10:57:11.047Z,7252.00
2018-12-24T10:58:11.020Z,9092.00
2018-12-24T10:59:11.007Z,8988.00
2018-12-24T11:00:10.996Z,8892.00
2018-12-24T11:01:10.984Z,8984.00
2018-12-24T11:02:11.004Z,9080.00
2018-12-24T11:03:10.966Z,9128.00
2018-12-24T11:04:10.957Z,8676.00
2018-12-24T11:05:10.997Z,8748.00
2018-12-24T11:06:10.932Z,8688.00
2018-12-24T11:07:10.938Z,8716.00
2018-12-24T11:08:10.918Z,8608.00
2018-12-24T11:09:10.904Z,8504.00
2018-12-24T11:10:10.897Z,8436.00
2018-12-24T11:11:10.876Z,8364.00
2018-12-24T11:12:10.884Z,8260.00
2018-12-24T11:13:10.854Z,8220.00
2018-12-24T11:14:10.843Z,8144.00
2018-12-24T11:15:10.837Z,7964.00
2018-12-24T11:16:10.823Z,7808.00
2018-12-24T11:17:10.875Z,7584.00
2018-12-24T11:18:10.800Z,7204.00
2018-12-24T11:19:10.786Z,6792.00
2018-12-24T11:20:10.774Z,6324.00
2018-12-24T11:21:10.772Z,5784.00
2018-12-24T11:22:10.763Z,5416.00
2018-12-24T11:23:10.759Z,5408.00
2018-12-24T11:24:10.730Z,5360.00
2018-12-24T11:25:10.718Z,5704.00
2018-12-24T11:26:10.712Z,5312.00
2018-12-24T11:27:10.707Z,4848.00
2018-12-24T11:28:10.712Z,4504.00
2018-12-24T11:29:10.679Z,4256.00
2018-12-24T11:30:10.664Z,3476.00
2018-12-24T11:31:10.653Z,2672.00
2018-12-24T11:32:10.641Z,2492.00
2018-12-24T11:33:10.652Z,2668.00
2018-12-24T11:34:10.617Z,2824.00
2018-12-24T11:35:10.622Z,2816.00
2018-12-24T11:36:10.597Z,3160.00
2018-12-24T11:37:10.586Z,3136.00
2018-12-24T11:38:10.593Z,3340.00
2018-12-24T11:39:10.572Z,2772.00
2018-12-24T11:40:10.550Z,3556.00
2018-12-24T11:41:10.542Z,3304.00
2018-12-24T11:42:10.529Z,3508.00
2018-12-24T11:43:10.542Z,3532.00
2018-12-24T11:44:10.509Z,2780.00
2018-12-24T11:45:10.499Z,2260.00
2018-12-24T11:46:10.487Z,2200.00
2018-12-24T11:47:10.475Z,4008.00
2018-12-24T11:48:10.479Z,4392.00
2018-12-24T11:49:10.452Z,4816.00
2018-12-24T11:50:10.438Z,3420.00
2018-12-24T11:51:10.476Z,4680.00
2018-12-24T11:52:10.418Z,4076.00
2018-12-24T11:53:10.479Z,2392.00
2018-12-24T11:54:10.395Z,2336.00
2018-12-24T11:55:10.384Z,2296.00
2018-12-24T11:56:10.373Z,2572.00
2018-12-24T11:57:10.364Z,5212.00
2018-12-24T11:58:13.474Z,7188.00
2018-12-24T11:59:10.339Z,7304.00
2018-12-24T12:00:10.327Z,3352.00
2018-12-24T12:01:10.321Z,2704.00
2018-12-24T12:02:10.360Z,2464.00
2018-12-24T12:03:10.318Z,7840.00
2018-12-24T12:04:10.287Z,7368.00
2018-12-24T12:05:10.272Z,4096.00
2018-12-24T12:06:10.261Z,5356.00
2018-12-24T12:07:10.260Z,6852.00
2018-12-24T12:08:10.377Z,2480.00
2018-12-24T12:09:10.237Z,1860.00
2018-12-24T12:10:10.214Z,5292.00
2018-12-24T12:11:10.207Z,2536.00
2018-12-24T12:12:10.193Z,4068.00
2018-12-24T12:13:10.183Z,2540.00
2018-12-24T12:14:10.188Z,1480.00
2018-12-24T12:15:10.170Z,2348.00
2018-12-24T12:16:10.148Z,2040.00
2018-12-24T12:17:10.139Z,1884.00
2018-12-24T12:18:10.128Z,1988.00
2018-12-24T12:19:10.132Z,1836.00
2018-12-24T12:20:10.106Z,1728.00
2018-12-24T12:21:10.120Z,2096.00
2018-12-24T12:22:10.082Z,1740.00
2018-12-24T12:23:10.070Z,1552.00
2018-12-24T12:24:10.081Z,1656.00
2018-12-24T12:25:10.054Z,1792.00
2018-12-24T12:26:10.042Z,1744.00
2018-12-24T12:27:10.047Z,1888.00
2018-12-24T12:28:10.018Z,2080.00
2018-12-24T12:29:10.025Z,2332.00
2018-12-24T12:30:09.997Z,2196.00
2018-12-24T12:31:09.986Z,2124.00
2018-12-24T12:32:09.980Z,1832.00
2018-12-24T12:33:09.987Z,1892.00
2018-12-24T12:34:09.974Z,2396.00
2018-12-24T12:35:09.946Z,3360.00
2018-12-24T12:36:09.941Z,3068.00
2018-12-24T12:37:09.919Z,2696.00
2018-12-24T12:38:09.915Z,2072.00
2018-12-24T12:39:09.922Z,2180.00
2018-12-24T12:40:09.888Z,2064.00
2018-12-24T12:41:09.891Z,2044.00
2018-12-24T12:42:09.866Z,2020.00
2018-12-24T12:43:09.857Z,1892.00
2018-12-24T12:44:09.843Z,2088.00
2018-12-24T12:45:09.845Z,2740.00
2018-12-24T12:46:09.844Z,3084.00
2018-12-24T12:47:09.816Z,3112.00
2018-12-24T12:48:09.803Z,2748.00
2018-12-24T12:49:09.792Z,2688.00
2018-12-24T12:50:09.798Z,2460.00
2018-12-24T12:51:09.783Z,2760.00
2018-12-24T12:52:09.759Z,2476.00
2018-12-24T12:53:09.746Z,2140.00
2018-12-24T12:54:09.736Z,1872.00
2018-12-24T12:55:09.744Z,1500.00
2018-12-24T12:56:09.718Z,1380.00
2018-12-24T12:57:09.712Z,1240.00
2018-12-24T12:58:09.719Z,1200.00
2018-12-24T12:59:09.685Z,1632.00
2018-12-24T13:00:09.695Z,1620.00
2018-12-24T13:01:09.706Z,1488.00
2018-12-24T13:02:09.655Z,1424.00
2018-12-24T13:03:09.642Z,1396.00
2018-12-24T13:04:09.630Z,1380.00
2018-12-24T13:05:09.654Z,1364.00
2018-12-24T13:06:09.607Z,1276.00
2018-12-24T13:07:09.604Z,1212.00
2018-12-24T13:08:09.593Z,1172.00
2018-12-24T13:09:09.583Z,1192.00
2018-12-24T13:10:09.567Z,1484.00
2018-12-24T13:11:10.038Z,2260.00
2018-12-24T13:12:09.547Z,2692.00
2018-12-24T13:13:09.532Z,2472.00
2018-12-24T13:14:09.526Z,2032.00
2018-12-24T13:15:09.513Z,1828.00
2018-12-24T13:16:09.528Z,1684.00
2018-12-24T13:17:09.491Z,1420.00
2018-12-24T13:18:09.508Z,1156.00
2018-12-24T13:19:09.469Z,1204.00
2018-12-24T13:20:09.482Z,1060.00
2018-12-24T13:21:09.465Z,840.00
2018-12-24T13:22:09.491Z,700.00
2018-12-24T13:23:09.505Z,672.00
2018-12-24T13:24:09.414Z,692.00
2018-12-24T13:25:09.404Z,680.00
2018-12-24T13:26:09.411Z,628.00
2018-12-24T13:27:09.394Z,720.00
2018-12-24T13:28:09.372Z,756.00
2018-12-24T13:29:09.369Z,756.00
2018-12-24T13:30:09.397Z,824.00
2018-12-24T13:31:09.381Z,900.00
2018-12-24T13:32:09.332Z,1416.00
2018-12-24T13:33:09.336Z,1432.00
2018-12-24T13:34:09.307Z,1296.00
2018-12-24T13:35:09.313Z,1244.00
2018-12-24T13:36:09.309Z,1196.00
2018-12-24T13:37:09.292Z,1268.00
2018-12-24T13:38:09.266Z,1460.00
2018-12-24T13:39:09.264Z,1628.00
2018-12-24T13:40:09.242Z,1640.00
2018-12-24T13:41:10.012Z,1480.00
2018-12-24T13:42:09.238Z,1232.00
2018-12-24T13:43:09.213Z,1044.00
2018-12-24T13:44:09.202Z,960.00
2018-12-24T13:45:09.189Z,988.00
2018-12-24T13:46:09.206Z,944.00
2018-12-24T13:47:09.190Z,888.00
2018-12-24T13:48:09.157Z,860.00
2018-12-24T13:49:09.148Z,756.00
2018-12-24T13:50:09.147Z,684.00
2018-12-24T13:51:09.126Z,672.00
2018-12-24T13:52:09.135Z,636.00
2018-12-24T13:53:09.179Z,600.00
2018-12-24T13:54:09.094Z,552.00
2018-12-24T13:55:09.083Z,464.00
2018-12-24T13:56:09.072Z,388.00
2018-12-24T13:57:09.081Z,348.00
2018-12-24T13:58:09.072Z,324.00
2018-12-24T13:59:09.039Z,320.00
2018-12-24T14:00:09.030Z,328.00
2018-12-24T14:01:09.017Z,352.00
2018-12-24T14:02:09.026Z,384.00
2018-12-24T14:03:09.009Z,432.00
2018-12-24T14:04:08.989Z,464.00
2018-12-24T14:05:08.976Z,476.00
2018-12-24T14:06:08.966Z,500.00
2018-12-24T14:07:08.976Z,528.00
2018-12-24T14:08:08.944Z,568.00
2018-12-24T14:09:08.942Z,620.00
2018-12-24T14:10:08.924Z,656.00
2018-12-24T14:11:08.910Z,676.00
2018-12-24T14:12:08.922Z,704.00
2018-12-24T14:13:08.890Z,716.00
2018-12-24T14:14:08.880Z,740.00
2018-12-24T14:15:08.882Z,776.00
2018-12-24T14:16:16.527Z,804.00
2018-12-24T14:17:09.962Z,796.00
2018-12-24T14:18:08.836Z,852.00
2018-12-24T14:19:08.828Z,872.00
2018-12-24T14:20:08.819Z,892.00
2018-12-24T14:21:08.819Z,836.00
2018-12-24T14:22:08.805Z,756.00
2018-12-24T14:23:08.804Z,728.00
2018-12-24T14:24:08.775Z,688.00
2018-12-24T14:25:08.765Z,668.00
2018-12-24T14:26:08.756Z,668.00
2018-12-24T14:27:08.752Z,644.00
2018-12-24T14:28:08.769Z,604.00
2018-12-24T14:29:08.723Z,588.00
2018-12-24T14:30:08.712Z,584.00
2018-12-24T14:31:08.702Z,592.00
2018-12-24T14:32:08.692Z,600.00
2018-12-24T14:33:08.701Z,560.00
2018-12-24T14:34:08.688Z,520.00
2018-12-24T14:35:08.660Z,508.00
2018-12-24T14:36:08.652Z,488.00
2018-12-24T14:37:08.640Z,476.00
2018-12-24T14:38:08.649Z,460.00
2018-12-24T14:39:08.625Z,456.00
2018-12-24T14:40:08.631Z,460.00
2018-12-24T14:41:08.600Z,492.00
2018-12-24T14:42:08.588Z,516.00
2018-12-24T14:43:08.597Z,504.00
2018-12-24T14:44:08.569Z,476.00
2018-12-24T14:45:08.559Z,472.00
2018-12-24T14:46:08.562Z,448.00
2018-12-24T14:47:08.540Z,428.00
2018-12-24T14:48:08.547Z,424.00
2018-12-24T14:49:08.517Z,404.00
2018-12-24T14:50:08.507Z,392.00
2018-12-24T14:51:08.518Z,392.00
2018-12-24T14:52:08.496Z,376.00
2018-12-24T14:53:08.504Z,364.00
2018-12-24T14:54:08.469Z,352.00
2018-12-24T14:55:08.457Z,340.00
2018-12-24T14:56:08.447Z,328.00
2018-12-24T14:57:08.440Z,316.00
2018-12-24T14:58:08.438Z,312.00
2018-12-24T14:59:08.440Z,308.00
2018-12-24T15:00:08.407Z,300.00
2018-12-24T15:01:08.478Z,288.00
2018-12-24T15:02:08.387Z,284.00
2018-12-24T15:03:08.376Z,276.00
2018-12-24T15:04:08.381Z,268.00
2018-12-24T15:05:08.381Z,260.00
2018-12-24T15:06:08.347Z,252.00
2018-12-24T15:07:08.335Z,240.00
2018-12-24T15:08:08.323Z,232.00
2018-12-24T15:09:08.334Z,224.00
2018-12-24T15:10:08.303Z,212.00
2018-12-24T15:11:08.316Z,200.00
2018-12-24T15:12:08.283Z,188.00
2018-12-24T15:13:08.340Z,180.00
2018-12-24T15:14:08.281Z,172.00
2018-12-24T15:15:08.253Z,164.00
2018-12-24T15:16:08.244Z,156.00
2018-12-24T15:17:08.241Z,148.00
2018-12-24T15:18:08.246Z,140.00
2018-12-24T15:19:08.231Z,128.00
2018-12-24T15:20:08.202Z,124.00
2018-12-24T15:21:08.192Z,116.00
2018-12-24T15:22:08.187Z,108.00
2018-12-24T15:23:08.174Z,104.00
2018-12-24T15:24:08.211Z,96.00
2018-12-24T15:25:08.158Z,88.00
2018-12-24T15:26:08.140Z,80.00
2018-12-24T15:27:08.154Z,76.00
2018-12-24T15:28:08.122Z,72.00
2018-12-24T15:29:08.133Z,68.00
2018-12-24T15:30:08.115Z,60.00
2018-12-24T15:31:08.097Z,56.00
2018-12-24T15:32:08.080Z,52.00
2018-12-24T15:33:08.069Z,44.00
2018-12-24T15:34:08.083Z,44.00
2018-12-24T15:35:08.052Z,40.00
2018-12-24T15:36:08.044Z,36.00
2018-12-24T15:37:08.033Z,32.00
2018-12-24T15:38:08.021Z,24.00
2018-12-24T15:39:08.042Z,24.00
2018-12-24T15:40:08.099Z,24.00
2018-12-24T15:41:08.004Z,20.00
2018-12-24T15:42:07.979Z,16.00
2018-12-24T15:43:07.969Z,12.00
2018-12-24T15:44:07.958Z,12.00
2018-12-24T15:45:07.978Z,12.00
2018-12-24T15:46:07.943Z,8.00
2018-12-24T15:47:07.938Z,8.00
2018-12-24T15:48:07.922Z,4.00
2018-12-24T15:49:07.909Z,8.00
2018-12-24T15:50:07.916Z,4.00
2018-12-24T15:51:07.890Z,4.00
2018-12-24T15:52:07.875Z,4.00
2018-12-24T15:53:07.876Z,4.00
2018-12-24T15:54:07.857Z,0.00
2018-12-24T15:55:07.864Z,4.00
2018-12-24T15:56:07.835Z,4.00
2018-12-24T15:57:07.826Z,4.00
2018-12-24T15:58:07.816Z,0.00
2018-12-24T15:59:07.812Z,0.00
2018-12-24T16:00:07.838Z,0.00
2018-12-24T16:01:07.793Z,0.00
2018-12-24T16:02:07.774Z,0.00
2018-12-24T16:03:07.766Z,0.00
2018-12-24T16:04:07.757Z,0.00
2018-12-24T16:05:07.769Z,0.00
2018-12-24T16:06:07.754Z,0.00
2018-12-24T16:07:07.729Z,0.00
2018-12-24T16:08:07.712Z,0.00
2018-12-24T16:09:07.714Z,0.00
2018-12-24T16:10:07.691Z,0.00
2018-12-24T16:11:07.713Z,0.00
2018-12-24T16:12:07.673Z,0.00
2018-12-24T16:13:07.662Z,0.00
2018-12-24T16:14:07.651Z,0.00
2018-12-24T16:15:07.644Z,0.00
2018-12-24T16:16:07.649Z,0.00
2018-12-24T16:17:07.635Z,0.00
2018-12-24T16:18:07.610Z,0.00
2018-12-24T16:19:07.600Z,0.00
2018-12-24T16:20:07.589Z,0.00
2018-12-24T16:21:07.598Z,0.00
2018-12-24T16:22:07.569Z,0.00
2018-12-24T16:23:07.570Z,0.00
2018-12-24T16:24:07.553Z,0.00
2018-12-24T16:25:07.537Z,0.00
2018-12-24T16:26:07.545Z,0.00
2018-12-24T16:27:07.518Z,0.00
2018-12-24T16:28:07.506Z,0.00
2018-12-24T16:29:07.502Z,0.00
2018-12-24T16:30:07.488Z,0.00
2018-12-24T16:31:07.492Z,0.00
2018-12-24T16:32:07.463Z,0.00
2018-12-24T16:33:07.455Z,0.00
2018-12-24T16:34:07.447Z,0.00
2018-12-24T16:35:07.442Z,0.00
2018-12-24T16:36:07.447Z,0.00
2018-12-24T16:37:07.418Z,0.00
2018-12-24T16:38:07.405Z,0.00
2018-12-24T16:39:07.394Z,0.00
2018-12-24T16:40:07.384Z,0.00
2018-12-24T16:41:07.400Z,0.00
2018-12-24T16:42:07.362Z,0.00
2018-12-24T16:43:07.354Z,0.00
2018-12-24T16:44:07.347Z,0.00
2018-12-24T16:45:07.332Z,0.00
2018-12-24T16:46:07.614Z,0.00
2018-12-24T16:47:07.322Z,0.00
2018-12-24T16:48:07.302Z,0.00
2018-12-24T16:49:07.292Z,0.00
2018-12-24T16:50:07.282Z,0.00
2018-12-24T16:51:07.272Z,0.00
2018-12-24T16:52:07.278Z,0.00
2018-12-24T16:53:07.255Z,0.00
2018-12-24T16:54:07.237Z,0.00
2018-12-24T16:55:07.227Z,0.00
2018-12-24T16:56:07.219Z,0.00
2018-12-24T16:57:07.225Z,0.00
2018-12-24T16:58:07.197Z,0.00
2018-12-24T16:59:07.198Z,0.00
2018-12-24T17:00:07.207Z,0.00
2018-12-24T17:01:07.165Z,0.00
2018-12-24T17:02:07.176Z,0.00
2018-12-24T17:03:07.143Z,0.00
2018-12-24T17:04:07.138Z,0.00
2018-12-24T17:05:07.128Z,0.00
2018-12-24T17:06:07.115Z,0.00
2018-12-24T17:07:07.122Z,0.00
2018-12-24T17:08:07.094Z,0.00
2018-12-24T17:09:07.104Z,0.00
2018-12-24T17:10:07.071Z,0.00
2018-12-24T17:11:07.064Z,0.00
2018-12-24T17:12:07.067Z,0.00
2018-12-24T17:13:07.038Z,0.00
2018-12-24T17:14:07.030Z,0.00
2018-12-24T17:15:07.018Z,0.00
2018-12-24T17:16:07.007Z,0.00
2018-12-24T17:17:07.909Z,0.00
2018-12-24T17:18:06.994Z,0.00
2018-12-24T17:19:06.977Z,0.00
2018-12-24T17:20:06.966Z,0.00
2018-12-24T17:21:06.957Z,0.00
2018-12-24T17:22:06.963Z,0.00
2018-12-24T17:23:06.942Z,0.00
2018-12-24T17:24:06.925Z,0.00
2018-12-24T17:25:06.913Z,0.00
2018-12-24T17:26:06.902Z,0.00
2018-12-24T17:27:06.911Z,0.00
2018-12-24T17:28:06.887Z,0.00
2018-12-24T17:29:06.880Z,0.00
2018-12-24T17:30:06.862Z,0.00
2018-12-24T17:31:06.850Z,0.00
2018-12-24T17:32:06.869Z,0.00
2018-12-24T17:33:06.831Z,0.00
2018-12-24T17:34:06.826Z,0.00
2018-12-24T17:35:06.814Z,0.00
2018-12-24T17:36:06.807Z,0.00
2018-12-24T17:37:06.786Z,0.00
2018-12-24T17:38:06.794Z,0.00
2018-12-24T17:39:06.766Z,0.00
2018-12-24T17:40:06.755Z,0.00
2018-12-24T17:41:06.745Z,0.00
2018-12-24T17:42:06.745Z,0.00
2018-12-24T17:43:06.740Z,0.00
2018-12-24T17:44:06.715Z,0.00
2018-12-24T17:45:06.702Z,0.00
2018-12-24T17:46:06.693Z,0.00
2018-12-24T17:47:06.680Z,0.00
2018-12-24T17:48:06.691Z,0.00
2018-12-24T17:49:06.660Z,0.00
2018-12-24T17:50:06.650Z,0.00
2018-12-24T17:51:06.642Z,0.00
2018-12-24T17:52:06.627Z,0.00
2018-12-24T17:53:06.637Z,0.00
2018-12-24T17:54:06.618Z,0.00
2018-12-24T17:55:06.596Z,0.00
2018-12-24T17:56:06.586Z,0.00
2018-12-24T17:57:06.581Z,0.00
2018-12-24T17:58:06.585Z,0.00
2018-12-24T17:59:06.555Z,0.00
2018-12-24T18:00:06.545Z,0.00
2018-12-24T18:01:06.544Z,0.00
2018-12-24T18:02:06.523Z,0.00
2018-12-24T18:03:06.539Z,0.00
2018-12-24T18:04:06.502Z,0.00
2018-12-24T18:05:06.492Z,0.00
2018-12-24T18:06:06.482Z,0.00
2018-12-24T18:07:06.478Z,0.00
2018-12-24T18:08:06.480Z,0.00
2018-12-24T18:09:06.451Z,0.00
2018-12-24T18:10:06.445Z,0.00
2018-12-24T18:11:06.428Z,0.00
2018-12-24T18:12:06.446Z,0.00
2018-12-24T18:13:06.448Z,0.00
2018-12-24T18:14:06.397Z,0.00
2018-12-24T18:15:06.391Z,0.00
2018-12-24T18:16:06.377Z,0.00
2018-12-24T18:17:06.365Z,0.00
2018-12-24T18:18:06.355Z,0.00
2018-12-24T18:19:06.374Z,0.00
2018-12-24T18:20:06.334Z,0.00
2018-12-24T18:21:06.322Z,0.00
2018-12-24T18:22:06.312Z,0.00
2018-12-24T18:23:06.301Z,0.00
2018-12-24T18:24:06.311Z,0.00
2018-12-24T18:25:06.286Z,0.00
2018-12-24T18:26:06.275Z,0.00
2018-12-24T18:27:06.262Z,0.00
2018-12-24T18:28:06.249Z,0.00
2018-12-24T18:29:06.255Z,0.00
2018-12-24T18:30:06.228Z,0.00
2018-12-24T18:31:06.222Z,0.00
2018-12-24T18:32:06.234Z,0.00
2018-12-24T18:33:06.196Z,0.00
2018-12-24T18:34:06.217Z,0.00
2018-12-24T18:35:06.174Z,0.00
2018-12-24T18:36:06.176Z,0.00
2018-12-24T18:37:06.163Z,0.00
2018-12-24T18:38:06.145Z,0.00
2018-12-24T18:39:06.154Z,0.00
2018-12-24T18:40:06.123Z,0.00
2018-12-24T18:41:06.111Z,0.00
2018-12-24T18:42:06.102Z,0.00
2018-12-24T18:43:06.102Z,0.00
2018-12-24T18:44:06.100Z,0.00
2018-12-24T18:45:06.072Z,0.00
2018-12-24T18:46:06.058Z,0.00
2018-12-24T18:47:06.121Z,0.00
2018-12-24T18:48:06.046Z,0.00
2018-12-24T18:49:06.044Z,0.00
2018-12-24T18:50:06.017Z,0.00
2018-12-24T18:51:06.007Z,0.00
2018-12-24T18:52:05.994Z,0.00
2018-12-24T18:53:05.985Z,0.00
2018-12-24T18:54:05.998Z,0.00
2018-12-24T18:55:05.963Z,0.00
2018-12-24T18:56:05.953Z,0.00
2018-12-24T18:57:05.948Z,0.00
2018-12-24T18:58:05.932Z,0.00
2018-12-24T18:59:05.952Z,0.00
2018-12-24T19:00:05.920Z,0.00
2018-12-24T19:01:05.900Z,0.00
2018-12-24T19:02:05.898Z,0.00
2018-12-24T19:03:05.882Z,0.00
2018-12-24T19:04:05.877Z,0.00
2018-12-24T19:05:05.943Z,0.00
2018-12-24T19:06:05.890Z,0.00
2018-12-24T19:07:05.839Z,0.00
2018-12-24T19:08:05.826Z,0.00
2018-12-24T19:09:05.818Z,0.00
2018-12-24T19:10:05.823Z,0.00
2018-12-24T19:11:05.800Z,0.00
2018-12-24T19:12:05.791Z,0.00
2018-12-24T19:13:05.780Z,0.00
2018-12-24T19:14:05.769Z,0.00
2018-12-24T19:15:05.783Z,0.00
2018-12-24T19:16:05.746Z,0.00
2018-12-24T19:17:05.730Z,0.00
2018-12-24T19:18:05.728Z,0.00
2018-12-24T19:19:05.711Z,0.00
2018-12-24T19:20:05.724Z,0.00
2018-12-24T19:21:05.688Z,0.00
2018-12-24T19:22:05.685Z,0.00
2018-12-24T19:23:05.667Z,0.00
2018-12-24T19:24:05.667Z,0.00
2018-12-24T19:25:05.667Z,0.00
2018-12-24T19:26:05.636Z,0.00
2018-12-24T19:27:05.626Z,0.00
2018-12-24T19:28:05.620Z,0.00
2018-12-24T19:29:05.603Z,0.00
2018-12-24T19:30:05.626Z,0.00
2018-12-24T19:31:05.583Z,0.00
2018-12-24T19:32:05.579Z,0.00
2018-12-24T19:33:05.561Z,0.00
2018-12-24T19:34:05.553Z,0.00
2018-12-24T19:35:05.733Z,0.00
2018-12-24T19:36:05.538Z,0.00
2018-12-24T19:37:05.522Z,0.00
2018-12-24T19:38:05.509Z,0.00
2018-12-24T19:39:05.499Z,0.00
2018-12-24T19:40:07.329Z,0.00
2018-12-24T19:41:05.498Z,0.00
2018-12-24T19:42:05.478Z,0.00
2018-12-24T19:43:05.464Z,0.00
2018-12-24T19:44:05.448Z,0.00
2018-12-24T19:45:05.435Z,0.00
2018-12-24T19:46:07.576Z,0.00
2018-12-24T19:47:05.413Z,0.00
2018-12-24T19:48:05.420Z,0.00
2018-12-24T19:49:05.402Z,0.00
2018-12-24T19:50:05.438Z,0.00
2018-12-24T19:51:05.391Z,0.00
2018-12-24T19:52:05.387Z,0.00
2018-12-24T19:53:05.351Z,0.00
2018-12-24T19:54:05.345Z,0.00
2018-12-24T19:55:05.337Z,0.00
2018-12-24T19:56:05.338Z,0.00
2018-12-24T19:57:05.311Z,0.00
2018-12-24T19:58:05.299Z,0.00
2018-12-24T19:59:05.287Z,0.00
2018-12-24T20:00:05.277Z,0.00
2018-12-24T20:01:05.335Z,0.00
2018-12-24T20:02:05.259Z,0.00
2018-12-24T20:03:05.247Z,0.00
2018-12-24T20:04:05.233Z,0.00
2018-12-24T20:05:05.225Z,0.00
2018-12-24T20:06:05.234Z,0.00
2018-12-24T20:07:05.208Z,0.00
2018-12-24T20:08:05.195Z,0.00
2018-12-24T20:09:05.183Z,0.00
2018-12-24T20:10:05.177Z,0.00
2018-12-24T20:11:05.181Z,0.00
2018-12-24T20:12:05.150Z,0.00
2018-12-24T20:13:05.146Z,0.00
2018-12-24T20:14:05.129Z,0.00
2018-12-24T20:15:05.120Z,0.00
2018-12-24T20:16:05.178Z,0.00
2018-12-24T20:17:05.097Z,0.00
2018-12-24T20:18:05.088Z,0.00
2018-12-24T20:19:05.139Z,0.00
2018-12-24T20:20:05.067Z,0.00
2018-12-24T20:21:05.056Z,0.00
2018-12-24T20:22:05.070Z,0.00
2018-12-24T20:23:05.038Z,0.00
2018-12-24T20:24:05.024Z,0.00
2018-12-24T20:25:05.035Z,0.00
2018-12-24T20:26:05.036Z,0.00
2018-12-24T20:27:05.010Z,0.00
2018-12-24T20:28:04.985Z,0.00
2018-12-24T20:29:04.977Z,0.00
2018-12-24T20:30:04.959Z,0.00
2018-12-24T20:31:04.973Z,0.00
2018-12-24T20:32:04.955Z,0.00
2018-12-24T20:33:04.929Z,0.00
2018-12-24T20:34:04.922Z,0.00
2018-12-24T20:35:04.908Z,0.00
2018-12-24T20:36:04.897Z,0.00
2018-12-24T20:37:04.916Z,0.00
2018-12-24T20:38:04.875Z,0.00
2018-12-24T20:39:04.865Z,0.00
2018-12-24T20:40:04.860Z,0.00
2018-12-24T20:41:04.843Z,0.00
2018-12-24T20:42:04.861Z,0.00
2018-12-24T20:43:04.835Z,0.00
2018-12-24T20:44:04.812Z,0.00
2018-12-24T20:45:04.800Z,0.00
2018-12-24T20:46:04.797Z,0.00
2018-12-24T20:47:04.778Z,0.00
2018-12-24T20:48:06.766Z,0.00
2018-12-24T20:49:04.762Z,0.00
2018-12-24T20:50:04.746Z,0.00
2018-12-24T20:51:04.740Z,0.00
2018-12-24T20:52:04.729Z,0.00
2018-12-24T20:53:04.735Z,0.00
2018-12-24T20:54:04.717Z,0.00
2018-12-24T20:55:04.700Z,0.00
2018-12-24T20:56:04.685Z,0.00
2018-12-24T20:57:04.674Z,0.00
2018-12-24T20:58:04.682Z,0.00
2018-12-24T20:59:04.747Z,0.00
2018-12-24T21:00:04.640Z,0.00
2018-12-24T21:01:04.634Z,0.00
2018-12-24T21:02:05.537Z,0.00
2018-12-24T21:03:04.631Z,0.00
2018-12-24T21:04:04.611Z,0.00
2018-12-24T21:05:04.598Z,0.00
2018-12-24T21:06:04.584Z,0.00
2018-12-24T21:07:04.569Z,0.00
2018-12-24T21:08:04.582Z,0.00
2018-12-24T21:09:04.544Z,0.00
2018-12-24T21:10:04.548Z,0.00
2018-12-24T21:11:04.529Z,0.00
2018-12-24T21:12:04.523Z,0.00
2018-12-24T21:13:04.575Z,0.00
2018-12-24T21:14:05.050Z,0.00
2018-12-24T21:15:04.508Z,0.00
2018-12-24T21:16:04.472Z,0.00
2018-12-24T21:17:04.498Z,0.00
2018-12-24T21:18:04.468Z,0.00
2018-12-24T21:19:04.458Z,0.00
2018-12-24T21:20:04.429Z,0.00
2018-12-24T21:21:04.442Z,0.00
2018-12-24T21:22:04.408Z,0.00
2018-12-24T21:23:04.426Z,0.00
2018-12-24T21:24:04.416Z,0.00
2018-12-24T21:25:04.375Z,0.00
2018-12-24T21:26:04.397Z,0.00
2018-12-24T21:27:04.356Z,0.00
2018-12-24T21:28:04.350Z,0.00
2018-12-24T21:29:04.385Z,0.00
2018-12-24T21:30:04.321Z,0.00
2018-12-24T21:31:04.312Z,0.00
2018-12-24T21:32:04.316Z,0.00
2018-12-24T21:33:04.298Z,0.00
2018-12-24T21:34:04.388Z,0.00
2018-12-24T21:35:04.270Z,0.00
2018-12-24T21:36:04.264Z,0.00
2018-12-24T21:37:04.247Z,0.00
2018-12-24T21:38:04.259Z,0.00
2018-12-24T21:39:04.266Z,0.00
2018-12-24T21:40:04.217Z,0.00
2018-12-24T21:41:04.221Z,0.00
2018-12-24T21:42:04.195Z,0.00
2018-12-24T21:43:04.185Z,0.00
2018-12-24T21:44:04.263Z,0.00
2018-12-24T21:45:04.170Z,0.00
2018-12-24T21:46:04.158Z,0.00
2018-12-24T21:47:04.175Z,0.00
2018-12-24T21:48:04.152Z,0.00
2018-12-24T21:49:04.146Z,0.00
2018-12-24T21:50:04.136Z,0.00
2018-12-24T21:51:04.118Z,0.00
2018-12-24T21:52:04.092Z,0.00
2018-12-24T21:53:04.103Z,0.00
2018-12-24T21:54:04.101Z,0.00
2018-12-24T21:55:04.089Z,0.00
2018-12-24T21:56:04.056Z,0.00
2018-12-24T21:57:04.045Z,0.00
2018-12-24T21:58:04.051Z,0.00
2018-12-24T21:59:04.014Z,0.00
2018-12-24T22:00:04.030Z,0.00
2018-12-24T22:01:04.017Z,0.00
2018-12-24T22:02:04.143Z,0.00
2018-12-24T22:03:03.973Z,0.00
2018-12-24T22:04:04.000Z,0.00
2018-12-24T22:05:03.973Z,0.00
2018-12-24T22:06:03.957Z,0.00
2018-12-24T22:07:03.996Z,0.00
2018-12-24T22:08:03.926Z,0.00